Terminal Aerodrome Forecast
Issued by NWS Sterling, VA

Current Version | Previous Version | Text Only | Print | Product List | Glossary Off
Versions: 1 2 3 4 5 6 7 8 9 10 11 12 13 14 15 16 17 18 19 20 21 22

877
FTUS41 KLWX 191430 AAA
TAFIAD
TAF AMD
KIAD 191430Z 1915/2018 24005KT P6SM BKN080
     FM191530 29020G35KT P6SM OVC040
     FM192200 31019G36KT P6SM SCT050
     FM200100 31016G29KT P6SM SKC
     FM200500 31011G22KT P6SM SKC=

USA.gov is the U.S. government's official web portal to all federal, state and local government web resources and services.